Terminal Aerodrome Forecast
Issued by NWS

Home | Current Version | Previous Version | Text Only | Print | Product List | Glossary On
Versions: 1 2 3 4 5 6 7 8 9 10 11 12 13 14 15 16
087
FTUS43 KILX 121139
TAFCMI
TAF
KCMI 121139Z 1212/1312 27006KT 6SM -SN SCT015 OVC045
      TEMPO 1212/1214 3SM -SN BR BKN015
     FM121400 28010KT P6SM OVC025
     FM121600 30014G24KT P6SM OVC025
     FM122200 31020G28KT P6SM SCT025=

USA.gov is the U.S. government's official web portal to all federal, state and local government web resources and services.